Adrian, Missouri
Current Conditions -  °F | °C
As of 11:55 AM on Thursday 30 Oct 2014 (Local Time) from KGLY Reporting Station
Clear Clear  
Wind Chill: 17°   Ceiling: Unl
Heat Index: 17°   Visibility: 10mi
Dew Point:   Wind: 7mph
Humidity: 55%   Direction: 190°S
Pressure: 30.03"   Gusts: NA
Location:  38.4°N, 94.35°W
Report Text: KGLY 301655Z AUTO 19006KT 10SM CLR 17/08 A3003 RMK AO2
Loading
Personal Weather Stations






























Interactive Weather Map New forecast layout! Learn more

10-Day Weather Forecast

Advertisements
Track Severe Weather on mobile